Time;durP1;ratioP1;P1;durP2;ratioP2;P2;SDS_P1;SDS_P2;PMS_P1;PMS_P2;Temp;Humidity;BMP_temperature;BMP_pressure;BME280_temperature;BME280_humidity;BME280_pressure;Samples;Min_cycle;Max_cycle;Signal;HPM_P1;HPM_P2
2023/05/07 00:02:15;;;;;;;0.00;0.00;;;;;;;13.57;87.32;98507.88;4929892;29;20305;-67
2023/05/07 00:05:08;;;;;;;0.00;0.00;;;;;;;13.53;88.12;98509.22;4927121;28;20238;-67
2023/05/07 00:07:34;;;;;;;0.00;0.00;;;;;;;13.47;89.08;98512.53;4922663;29;20301;-67
2023/05/07 00:10:01;;;;;;;0.00;0.00;;;;;;;13.41;89.55;98511.34;4911187;29;20234;-67
2023/05/07 00:12:31;;;;;;;0.00;0.00;;;;;;;13.35;91.04;98501.56;4906595;29;20234;-67
2023/05/07 00:14:57;;;;;;;0.00;0.00;;;;;;;13.29;91.88;98501.25;4909950;29;20234;-67
2023/05/07 00:17:24;;;;;;;0.00;0.00;;;;;;;13.28;93.54;98506.69;4908016;29;20250;-67
2023/05/07 00:19:51;;;;;;;0.00;0.00;;;;;;;13.26;92.66;98498.97;4910978;29;20709;-67
2023/05/07 00:22:17;;;;;;;0.00;0.00;;;;;;;13.29;93.56;98492.59;4911089;29;20248;-67
2023/05/07 00:24:49;;;;;;;0.00;0.00;;;;;;;13.28;93.32;98498.81;4908335;29;20242;-67
2023/05/07 00:27:15;;;;;;;0.00;0.00;;;;;;;13.33;93.34;98493.88;4911025;29;20737;-67
2023/05/07 00:30:09;;;;;;;0.00;0.00;;;;;;;13.41;92.53;98501.75;4927131;29;20292;-67
2023/05/07 00:32:36;;;;;;;0.00;0.00;;;;;;;13.51;91.44;98491.00;4922001;28;20289;-67
2023/05/07 00:35:03;;;;;;;0.00;0.00;;;;;;;13.62;90.64;98499.47;4908757;29;20795;-67
2023/05/07 00:37:29;;;;;;;0.00;0.00;;;;;;;13.71;90.24;98501.06;4906048;28;20251;-67
2023/05/07 00:39:56;;;;;;;0.00;0.00;;;;;;;13.76;90.81;98505.81;4909117;29;20720;-67
2023/05/07 00:42:23;;;;;;;0.00;0.00;;;;;;;13.69;91.73;98497.78;4908371;29;20239;-67
2023/05/07 00:44:50;;;;;;;0.00;0.00;;;;;;;13.55;91.26;98502.78;4908967;29;20238;-67
2023/05/07 00:47:18;;;;;;;0.00;0.00;;;;;;;13.50;92.82;98496.44;4909703;29;20327;-67
2023/05/07 00:49:49;;;;;;;0.00;0.00;;;;;;;13.38;92.99;98504.66;4907563;29;20235;-67
2023/05/07 00:52:18;;;;;;;0.00;0.00;;;;;;;13.32;94.65;98499.28;4902623;29;20885;-67
2023/05/07 00:54:49;;;;;;;0.00;0.00;;;;;;;13.21;94.95;98503.94;4900128;29;20233;-67
2023/05/07 00:57:16;;;;;;;0.00;0.00;;;;;;;13.25;95.91;98504.41;4910222;29;20253;-67
2023/05/07 00:59:49;;;;;;;0.00;0.00;;;;;;;13.16;97.03;98497.56;4906487;29;20234;-67
2023/05/07 01:02:15;;;;;;;0.00;0.00;;;;;;;13.07;96.98;98502.03;4908539;29;20251;-67
2023/05/07 01:04:48;;;;;;;0.00;0.00;;;;;;;13.02;96.80;98494.66;4904871;29;20321;-67
2023/05/07 01:07:15;;;;;;;0.00;0.00;;;;;;;12.96;97.13;98493.56;4908773;29;20276;-67
2023/05/07 01:09:48;;;;;;;0.00;0.00;;;;;;;12.92;97.75;98496.66;4907095;29;20615;-67
2023/05/07 01:12:16;;;;;;;0.00;0.00;;;;;;;12.88;98.25;98495.38;4908270;29;20248;-67
2023/05/07 01:14:50;;;;;;;0.00;0.00;;;;;;;12.83;99.18;98496.69;4904094;29;20289;-67
2023/05/07 01:17:17;;;;;;;0.00;0.00;;;;;;;12.82;99.51;98494.25;4909290;29;20606;-67
2023/05/07 01:19:50;;;;;;;0.00;0.00;;;;;;;12.78;100.00;98491.13;4897208;29;20289;-67
2023/05/07 01:22:29;;;;;;;0.00;0.00;;;;;;;12.77;100.00;98491.31;4896757;29;20309;-67
2023/05/07 01:24:56;;;;;;;0.00;0.00;;;;;;;12.88;100.00;98490.13;4899692;29;20234;-67
2023/05/07 01:27:23;;;;;;;0.00;0.00;;;;;;;12.82;100.00;98491.63;4905461;28;20607;-67
2023/05/07 01:29:51;;;;;;;0.00;0.00;;;;;;;12.78;100.00;98485.09;4923973;29;20343;-67
2023/05/07 01:32:23;;;;;;;0.00;0.00;;;;;;;12.69;100.00;98485.13;4900797;29;20253;-67
2023/05/07 01:34:53;;;;;;;0.00;0.00;;;;;;;12.64;100.00;98494.47;4900608;29;20229;-67
2023/05/07 01:37:21;;;;;;;0.00;0.00;;;;;;;12.62;100.00;98499.88;4909469;29;20246;-67
2023/05/07 01:39:50;;;;;;;0.00;0.00;;;;;;;12.59;100.00;98487.09;4914845;29;20238;-67
2023/05/07 01:42:17;;;;;;;0.00;0.00;;;;;;;12.63;100.00;98493.66;4909343;29;20240;-67
2023/05/07 01:44:48;;;;;;;0.00;0.00;;;;;;;12.62;100.00;98489.38;4900880;29;20320;-67
2023/05/07 01:47:15;;;;;;;0.00;0.00;;;;;;;12.57;100.00;98483.84;4898050;29;20243;-67
2023/05/07 01:49:48;;;;;;;0.00;0.00;;;;;;;12.60;100.00;98488.75;4908059;29;20258;-67
2023/05/07 01:52:15;;;;;;;0.00;0.00;;;;;;;12.57;100.00;98488.28;4927861;29;20795;-67
2023/05/07 01:55:09;;;;;;;0.00;0.00;;;;;;;12.48;100.00;98480.44;4924692;29;20801;-67
2023/05/07 01:57:36;;;;;;;0.00;0.00;;;;;;;12.49;100.00;98486.47;4904424;29;21003;-67
2023/05/07 02:00:06;;;;;;;0.00;0.00;;;;;;;12.48;100.00;98482.22;4907708;29;20626;-67
2023/05/07 02:02:42;;;;;;;0.00;0.00;;;;;;;12.45;100.00;98493.03;4924570;29;20235;-67
2023/05/07 02:05:17;;;;;;;0.00;0.00;;;;;;;12.47;100.00;98486.66;4908735;29;20224;-67
2023/05/07 02:07:47;;;;;;;0.00;0.00;;;;;;;12.46;100.00;98484.19;4908014;29;20248;-67
2023/05/07 02:10:16;;;;;;;0.00;0.00;;;;;;;12.43;100.00;98490.59;4922929;29;20235;-67
2023/05/07 02:12:43;;;;;;;0.00;0.00;;;;;;;12.44;100.00;98480.91;4922677;28;20253;-67
2023/05/07 02:15:11;;;;;;;0.00;0.00;;;;;;;12.41;100.00;98479.47;4926726;29;20313;-67
2023/05/07 02:17:40;;;;;;;0.00;0.00;;;;;;;12.40;100.00;98476.00;4904106;29;20285;-67
2023/05/07 02:20:13;;;;;;;0.00;0.00;;;;;;;12.37;100.00;98478.97;4923431;29;20277;-67
2023/05/07 02:22:40;;;;;;;0.00;0.00;;;;;;;12.36;100.00;98482.56;4895883;28;20246;-67
2023/05/07 02:25:07;;;;;;;0.00;0.00;;;;;;;12.31;100.00;98482.25;4900273;29;20241;-67
2023/05/07 02:27:35;;;;;;;0.00;0.00;;;;;;;12.27;100.00;98483.56;4902679;29;20238;-67
2023/05/07 02:30:02;;;;;;;0.00;0.00;;;;;;;12.35;100.00;98480.13;4907037;29;20244;-67
2023/05/07 02:32:30;;;;;;;0.00;0.00;;;;;;;12.32;100.00;98486.50;4895905;28;20714;-67
2023/05/07 02:34:56;;;;;;;0.00;0.00;;;;;;;12.29;100.00;98476.34;4902938;29;20689;-67
2023/05/07 02:37:23;;;;;;;0.00;0.00;;;;;;;12.22;100.00;98475.38;4910552;29;20241;-67
2023/05/07 02:39:49;;;;;;;0.00;0.00;;;;;;;12.20;100.00;98467.72;4907745;29;20249;-67
2023/05/07 02:42:17;;;;;;;0.00;0.00;;;;;;;12.18;100.00;98476.72;4910302;29;20236;-67
2023/05/07 02:44:50;;;;;;;0.00;0.00;;;;;;;12.15;100.00;98474.44;4899911;29;20331;-67
2023/05/07 02:47:17;;;;;;;0.00;0.00;;;;;;;12.08;100.00;98476.88;4907897;29;20713;-67
2023/05/07 02:49:48;;;;;;;0.00;0.00;;;;;;;12.07;100.00;98477.84;4905596;29;20668;-67
2023/05/07 02:52:15;;;;;;;0.00;0.00;;;;;;;12.01;100.00;98476.72;4907396;29;20240;-67
2023/05/07 02:55:07;;;;;;;0.00;0.00;;;;;;;11.96;100.00;98478.97;4924603;29;20244;-67
2023/05/07 02:57:34;;;;;;;0.00;0.00;;;;;;;11.89;100.00;98480.59;4923694;28;20311;-67
2023/05/07 03:00:11;;;;;;;0.00;0.00;;;;;;;11.85;100.00;98484.53;4906614;29;20279;-67
2023/05/07 03:02:39;;;;;;;0.00;0.00;;;;;;;11.80;100.00;98482.38;4906252;29;20236;-67
2023/05/07 03:05:07;;;;;;;0.00;0.00;;;;;;;11.73;100.00;98481.41;4909564;29;20322;-67
2023/05/07 03:07:33;;;;;;;0.00;0.00;;;;;;;11.65;100.00;98480.44;4923306;28;20226;-67
2023/05/07 03:10:00;;;;;;;0.00;0.00;;;;;;;11.62;100.00;98479.91;4926765;29;20236;-67
2023/05/07 03:12:26;;;;;;;0.00;0.00;;;;;;;11.57;100.00;98475.19;4907584;29;20247;-67
2023/05/07 03:14:53;;;;;;;0.00;0.00;;;;;;;11.55;100.00;98474.53;4901020;29;20237;-67
2023/05/07 03:17:21;;;;;;;0.00;0.00;;;;;;;11.53;100.00;98476.50;4901568;29;20243;-67
2023/05/07 03:19:48;;;;;;;0.00;0.00;;;;;;;11.51;100.00;98471.41;4896878;29;20249;-67
2023/05/07 03:22:15;;;;;;;0.00;0.00;;;;;;;11.47;100.00;98470.09;4904885;29;20242;-67
2023/05/07 03:24:47;;;;;;;0.00;0.00;;;;;;;11.45;100.00;98464.19;4899523;29;20241;-67
2023/05/07 03:27:13;;;;;;;0.00;0.00;;;;;;;11.42;100.00;98461.09;4924023;29;20240;-67
2023/05/07 03:29:40;;;;;;;0.00;0.00;;;;;;;11.40;100.00;98461.25;4913922;29;20251;-67
2023/05/07 03:32:07;;;;;;;0.00;0.00;;;;;;;11.40;100.00;98466.47;5102571;23;20240;-66
2023/05/07 03:34:35;;;;;;;0.00;0.00;;;;;;;11.44;100.00;98457.34;4909182;29;20269;-66
2023/05/07 03:37:01;;;;;;;0.00;0.00;;;;;;;11.44;100.00;98459.16;4912543;29;20759;-66
2023/05/07 03:39:28;;;;;;;0.00;0.00;;;;;;;11.39;100.00;98462.22;4909610;29;20273;-66
2023/05/07 03:41:55;;;;;;;0.00;0.00;;;;;;;11.39;100.00;98462.22;4909496;29;20708;-66
2023/05/07 03:44:21;;;;;;;0.00;0.00;;;;;;;11.42;100.00;98468.94;4918123;29;20228;-66
2023/05/07 03:46:50;;;;;;;0.00;0.00;;;;;;;11.41;100.00;98459.47;4916998;29;20236;-66
2023/05/07 03:49:17;;;;;;;0.00;0.00;;;;;;;11.39;100.00;98457.00;4920877;29;20304;-66
2023/05/07 03:51:45;;;;;;;0.00;0.00;;;;;;;11.39;100.00;98462.22;4898257;29;20245;-66
2023/05/07 03:54:11;;;;;;;0.00;0.00;;;;;;;11.40;100.00;98460.44;4917938;29;20332;-66
2023/05/07 03:56:43;;;;;;;0.00;0.00;;;;;;;11.43;100.00;98463.53;4906571;29;20240;-66
2023/05/07 03:59:09;;;;;;;0.00;0.00;;;;;;;11.49;100.00;98473.38;4920710;29;20253;-66
2023/05/07 04:01:36;;;;;;;0.00;0.00;;;;;;;11.48;100.00;98468.31;4898933;29;20248;-66
2023/05/07 04:04:04;;;;;;;0.00;0.00;;;;;;;11.50;100.00;98479.41;4908202;29;20236;-66
2023/05/07 04:06:31;;;;;;;0.00;0.00;;;;;;;11.46;100.00;98476.28;4901174;29;20260;-66
2023/05/07 04:09:00;;;;;;;0.00;0.00;;;;;;;11.50;100.00;98477.63;4902617;29;20233;-66
2023/05/07 04:11:27;;;;;;;0.00;0.00;;;;;;;11.62;100.00;98483.38;4914958;29;20292;-66
2023/05/07 04:13:54;;;;;;;0.00;0.00;;;;;;;11.72;100.00;98485.00;4920528;29;20699;-66
2023/05/07 04:16:23;;;;;;;0.00;0.00;;;;;;;11.70;100.00;98482.56;4898467;29;20232;-66
2023/05/07 04:18:50;;;;;;;0.00;0.00;;;;;;;11.70;100.00;98487.78;4904494;29;20733;-66
2023/05/07 04:21:17;;;;;;;0.00;0.00;;;;;;;11.70;100.00;98493.00;4919168;28;20316;-66
2023/05/07 04:23:44;;;;;;;0.00;0.00;;;;;;;11.70;100.00;98487.78;4914525;29;20252;-66
2023/05/07 04:26:15;;;;;;;0.00;0.00;;;;;;;11.75;100.00;98493.34;4916507;29;20264;-66
2023/05/07 04:28:43;;;;;;;0.00;0.00;;;;;;;11.83;100.00;98492.53;4913143;29;20316;-66
2023/05/07 04:31:10;;;;;;;0.00;0.00;;;;;;;11.89;100.00;98484.03;4910441;29;20234;-66
2023/05/07 04:33:38;;;;;;;0.00;0.00;;;;;;;11.91;100.00;98492.53;4916231;29;21152;-66
2023/05/07 04:36:07;;;;;;;0.00;0.00;;;;;;;11.95;100.00;98493.03;4920884;29;20324;-66
2023/05/07 04:38:40;;;;;;;0.00;0.00;;;;;;;11.99;100.00;98501.38;4914433;29;20247;-66
2023/05/07 04:41:07;;;;;;;0.00;0.00;;;;;;;12.03;100.00;98495.69;4905976;29;20237;-66
2023/05/07 04:43:39;;;;;;;0.00;0.00;;;;;;;12.08;100.00;98495.19;4913505;29;20239;-66
2023/05/07 04:46:06;;;;;;;0.00;0.00;;;;;;;12.12;100.00;98495.69;4916161;29;20312;-66
2023/05/07 04:48:33;;;;;;;0.00;0.00;;;;;;;12.19;100.00;98497.47;4898421;29;20317;-66
2023/05/07 04:51:01;;;;;;;0.00;0.00;;;;;;;12.23;100.00;98504.00;4912086;29;20241;-66
2023/05/07 04:53:28;;;;;;;0.00;0.00;;;;;;;12.30;100.00;98512.00;4900850;29;20236;-66
2023/05/07 04:55:57;;;;;;;0.00;0.00;;;;;;;12.36;100.00;98515.78;4912444;29;20233;-66
2023/05/07 04:58:25;;;;;;;0.00;0.00;;;;;;;12.40;100.00;98525.75;4897623;29;20241;-66
2023/05/07 05:00:54;;;;;;;0.00;0.00;;;;;;;12.49;100.00;98525.75;4915185;28;20575;-66
2023/05/07 05:03:20;;;;;;;0.00;0.00;;;;;;;12.54;100.00;98534.75;4918166;29;20237;-66
2023/05/07 05:05:47;;;;;;;0.00;0.00;;;;;;;12.61;100.00;98537.50;4900522;28;20232;-66
2023/05/07 05:08:14;;;;;;;0.00;0.00;;;;;;;12.72;100.00;98544.19;4907430;29;20346;-66
2023/05/07 05:10:43;;;;;;;0.00;0.00;;;;;;;12.73;100.00;98543.22;4913601;29;20237;-66
2023/05/07 05:13:12;;;;;;;0.00;0.00;;;;;;;12.73;100.00;98543.22;4921238;29;20245;-66
2023/05/07 05:15:39;;;;;;;0.00;0.00;;;;;;;12.75;100.00;98540.44;4913104;29;20245;-66
2023/05/07 05:18:07;;;;;;;0.00;0.00;;;;;;;12.82;100.00;98536.16;4916247;29;20241;-66
2023/05/07 05:20:34;;;;;;;0.00;0.00;;;;;;;12.85;100.00;98541.88;4906986;29;20252;-66
2023/05/07 05:23:00;;;;;;;5.07;2.30;;;;;;;12.90;100.00;98541.38;4890687;29;20256;-67
2023/05/07 05:25:28;;;;;;;4.93;3.97;;;;;;;12.97;100.00;98552.00;4910866;29;20243;-67
2023/05/07 05:27:55;;;;;;;6.77;4.90;;;;;;;12.97;100.00;98563.31;4922260;29;20270;-67
2023/05/07 05:30:22;;;;;;;6.80;5.47;;;;;;;12.90;100.00;98569.38;4916534;29;20229;-67
2023/05/07 05:32:48;;;;;;;7.70;6.00;;;;;;;12.79;100.00;98563.50;4898410;29;20230;-67
2023/05/07 05:35:16;;;;;;;8.80;5.80;;;;;;;12.77;100.00;98560.22;4908758;29;20236;-67
2023/05/07 05:37:44;;;;;;;10.30;8.40;;;;;;;12.79;100.00;98555.63;4914303;29;20328;-67
2023/05/07 05:40:11;;;;;;;9.40;7.37;;;;;;;12.93;100.00;98550.69;4910602;29;20276;-67
2023/05/07 05:42:38;;;;;;;11.63;6.90;;;;;;;12.97;100.00;98547.59;4905406;29;20244;-68
2023/05/07 05:45:06;;;;;;;9.97;6.87;;;;;;;13.04;100.00;98537.25;4918429;29;20231;-68
2023/05/07 05:47:34;;;;;;;13.57;8.03;;;;;;;13.06;100.00;98537.88;4920015;29;20253;-68
2023/05/07 05:50:01;;;;;;;10.17;7.43;;;;;;;13.12;100.00;98539.84;4923249;29;20231;-68
2023/05/07 05:52:29;;;;;;;9.17;6.23;;;;;;;13.23;100.00;98550.94;4903793;29;20238;-68
2023/05/07 05:54:57;;;;;;;6.03;5.40;;;;;;;13.39;100.00;98550.03;4899446;29;20229;-68
2023/05/07 05:57:23;;;;;;;7.83;5.70;;;;;;;13.46;100.00;98539.72;4898079;29;20331;-68
2023/05/07 05:59:50;;;;;;;6.73;5.60;;;;;;;13.65;100.00;98549.78;4911772;29;20237;-68
2023/05/07 06:02:17;;;;;;;8.33;6.07;;;;;;;13.65;100.00;98555.03;4922927;29;20253;-68
2023/05/07 06:04:49;;;;;;;7.63;5.33;;;;;;;13.84;100.00;98555.56;4903446;29;20234;-68
2023/05/07 06:07:18;;;;;;;7.20;5.17;;;;;;;14.01;100.00;98562.34;4917119;29;20230;-68
2023/05/07 06:09:50;;;;;;;7.43;5.47;;;;;;;14.17;100.00;98552.72;4898927;29;20336;-68
2023/05/07 06:12:17;;;;;;;6.67;5.30;;;;;;;14.29;100.00;98556.56;4905977;29;20244;-68
2023/05/07 06:14:49;;;;;;;11.27;5.90;;;;;;;14.20;100.00;98568.13;4907040;29;20280;-68
2023/05/07 06:17:16;;;;;;;12.37;5.50;;;;;;;14.32;100.00;98574.59;4901381;29;20234;-68
2023/05/07 06:19:50;;;;;;;5.97;5.37;;;;;;;14.43;100.00;98586.47;4893837;29;20239;-68
2023/05/07 06:22:19;;;;;;;6.07;4.30;;;;;;;14.53;100.00;98594.13;4916836;29;20654;-68
2023/05/07 06:24:48;;;;;;;8.93;6.03;;;;;;;14.53;99.72;98594.13;4916743;29;20234;-68
2023/05/07 06:27:16;;;;;;;8.37;6.83;;;;;;;14.39;100.00;98602.78;4912272;29;20766;-68
2023/05/07 06:29:52;;;;;;;10.53;7.50;;;;;;;14.16;100.00;98595.72;4900532;29;20245;-68
2023/05/07 06:32:19;;;;;;;10.23;7.90;;;;;;;13.96;100.00;98598.78;4915463;29;20370;-68
2023/05/07 06:34:49;;;;;;;10.77;7.83;;;;;;;13.90;100.00;98596.84;4903088;29;20240;-68
2023/05/07 06:37:16;;;;;;;10.57;8.07;;;;;;;14.08;100.00;98611.50;4912743;29;20282;-68
2023/05/07 06:39:59;;;;;;;9.80;8.03;;;;;;;14.22;100.00;98610.78;4901871;29;20233;-68
2023/05/07 06:42:28;;;;;;;11.13;8.63;;;;;;;14.29;100.00;98610.91;4899778;29;20235;-68
2023/05/07 06:44:58;;;;;;;11.53;8.73;;;;;;;14.29;100.00;98603.03;4900180;28;20238;-68
2023/05/07 06:47:26;;;;;;;9.40;7.80;;;;;;;14.41;100.00;98606.84;4893653;29;20285;-68
2023/05/07 06:49:54;;;;;;;12.23;8.30;;;;;;;14.49;100.00;98611.22;4908083;29;20231;-68
2023/05/07 06:52:25;;;;;;;9.37;7.30;;;;;;;14.91;100.00;98604.63;4910608;29;20293;-68
2023/05/07 06:54:51;;;;;;;11.23;7.77;;;;;;;15.18;97.64;98604.22;4901322;29;20235;-68
2023/05/07 06:57:20;;;;;;;9.33;7.67;;;;;;;15.37;95.21;98608.09;4915762;29;20312;-68
2023/05/07 06:59:51;;;;;;;9.00;7.20;;;;;;;15.93;94.00;98602.31;4897093;29;20233;-68
2023/05/07 07:02:18;;;;;;;8.80;6.53;;;;;;;16.18;91.68;98606.41;4908636;29;20273;-68
2023/05/07 07:04:50;;;;;;;8.17;7.13;;;;;;;16.37;90.98;98611.06;4900214;29;20236;-68
2023/05/07 07:07:17;;;;;;;9.70;6.70;;;;;;;16.35;89.61;98610.44;4912943;29;20323;-68
2023/05/07 07:09:51;;;;;;;9.57;6.90;;;;;;;16.21;90.15;98617.41;4905855;29;20240;-68
2023/05/07 07:12:19;;;;;;;8.90;6.67;;;;;;;16.09;91.38;98613.63;4907968;29;20239;-68
2023/05/07 07:14:48;;;;;;;7.13;6.40;;;;;;;16.02;92.24;98608.28;4896729;29;20228;-68
2023/05/07 07:17:17;;;;;;;8.40;6.70;;;;;;;15.84;93.49;98607.88;4900979;29;20239;-68
2023/05/07 07:19:49;;;;;;;11.83;6.63;;;;;;;15.86;95.05;98616.41;4919549;29;20817;-68
2023/05/07 07:22:15;;;;;;;11.30;7.27;;;;;;;15.80;95.17;98617.94;4916263;29;20268;-68
2023/05/07 07:25:07;;;;;;;7.37;6.20;;;;;;;16.14;95.78;98629.69;4907985;29;20832;-68
2023/05/07 07:27:34;;;;;;;9.93;6.43;;;;;;;16.41;92.89;98632.59;4905008;29;20231;-68
2023/05/07 07:30:01;;;;;;;8.77;6.27;;;;;;;16.52;88.26;98634.69;4917204;29;20243;-68
2023/05/07 07:32:33;;;;;;;8.47;5.90;;;;;;;16.40;88.83;98635.38;4915597;29;20661;-68
2023/05/07 07:35:00;;;;;;;9.10;5.83;;;;;;;16.32;88.57;98639.78;4917659;29;20258;-68
2023/05/07 07:37:28;;;;;;;6.50;5.60;;;;;;;16.56;87.90;98639.56;4893786;29;20239;-68
2023/05/07 07:39:56;;;;;;;6.93;5.17;;;;;;;16.64;88.38;98642.09;4914356;28;20271;-68
2023/05/07 07:42:22;;;;;;;6.70;5.30;;;;;;;16.75;86.55;98640.78;4911134;29;20247;-68
2023/05/07 07:44:49;;;;;;;6.70;5.57;;;;;;;16.83;87.63;98635.34;4906846;29;20316;-68
2023/05/07 07:47:19;;;;;;;8.83;5.20;;;;;;;16.94;86.56;98640.13;4921561;29;20269;-68
2023/05/07 07:49:51;;;;;;;8.23;5.73;;;;;;;17.07;86.06;98642.03;4906431;29;20227;-68
2023/05/07 07:52:19;;;;;;;9.93;5.83;;;;;;;17.20;84.74;98637.88;4909528;29;20228;-68
2023/05/07 07:54:48;;;;;;;10.73;5.60;;;;;;;17.40;84.67;98640.59;4901432;29;20241;-68
2023/05/07 07:57:15;;;;;;;5.90;5.30;;;;;;;17.47;83.62;98630.09;4916725;29;20225;-68
2023/05/07 08:00:09;;;;;;;6.23;5.47;;;;;;;17.31;83.10;98632.06;4913806;29;20336;-68
2023/05/07 08:02:43;;;;;;;6.57;5.60;;;;;;;17.35;83.39;98633.28;4916320;29;20331;-66
2023/05/07 08:05:13;;;;;;;9.37;6.03;;;;;;;17.38;84.05;98632.06;4904895;29;20236;-66
2023/05/07 08:07:40;;;;;;;7.13;5.70;;;;;;;17.42;86.71;98630.69;4909628;29;20248;-66
2023/05/07 08:10:08;;;;;;;7.37;5.73;;;;;;;17.67;82.53;98625.72;4911050;29;20268;-66
2023/05/07 08:12:35;;;;;;;9.77;5.10;;;;;;;17.70;82.76;98629.78;4915794;29;20233;-66
2023/05/07 08:15:01;;;;;;;7.10;5.10;;;;;;;17.79;82.90;98633.06;4921698;29;20315;-66
2023/05/07 08:17:28;;;;;;;6.10;5.50;;;;;;;17.87;84.37;98632.09;4910059;29;20235;-66
2023/05/07 08:19:56;;;;;;;6.87;5.83;;;;;;;17.70;82.76;98635.06;4916124;28;20233;-66
2023/05/07 08:22:25;;;;;;;7.03;5.57;;;;;;;17.82;83.48;98638.78;4914534;29;20246;-66
2023/05/07 08:24:53;;;;;;;8.93;5.67;;;;;;;18.00;83.25;98634.81;4923086;29;20312;-68
2023/05/07 08:27:20;;;;;;;6.83;5.63;;;;;;;18.01;82.37;98647.00;4923032;29;20238;-68
2023/05/07 08:29:49;;;;;;;8.23;4.90;;;;;;;18.44;80.88;98635.28;4899995;29;20973;-68
2023/05/07 08:32:18;;;;;;;5.97;4.97;;;;;;;18.77;78.40;98636.31;4900629;29;20240;-68
2023/05/07 08:34:49;;;;;;;8.60;5.70;;;;;;;18.50;77.96;98639.78;4905268;29;20240;-68
2023/05/07 08:37:15;;;;;;;6.10;5.30;;;;;;;18.93;74.74;98640.38;4876396;29;20287;-68
2023/05/07 08:40:09;;;;;;;9.70;5.60;;;;;;;19.04;74.39;98639.78;4918716;29;20246;-68
2023/05/07 08:42:37;;;;;;;5.20;4.57;;;;;;;19.15;72.74;98639.16;4912842;29;20604;-68
2023/05/07 08:45:09;;;;;;;6.40;4.90;;;;;;;19.40;72.03;98656.19;4919006;28;20234;-68
2023/05/07 08:47:43;;;;;;;8.30;4.27;;;;;;;19.56;72.32;98650.44;4914063;29;20270;-68
2023/05/07 08:50:11;;;;;;;4.60;4.20;;;;;;;19.50;71.03;98653.13;4917023;28;20234;-68
2023/05/07 08:52:38;;;;;;;6.43;4.60;;;;;;;19.42;71.21;98654.16;4914431;29;20238;-68
2023/05/07 08:55:07;;;;;;;5.90;4.53;;;;;;;19.30;70.56;98653.97;4914752;29;20273;-68
2023/05/07 08:57:35;;;;;;;5.77;4.20;;;;;;;19.40;70.00;98657.03;4896828;29;20268;-68
2023/05/07 09:00:03;;;;;;;4.60;4.10;;;;;;;19.16;72.09;98653.19;4909123;29;20522;-68
2023/05/07 09:02:31;;;;;;;6.57;4.13;;;;;;;19.32;69.93;98658.03;4910698;29;20235;-68
2023/05/07 09:04:57;;;;;;;4.93;3.23;;;;;;;19.25;68.57;98646.66;4917990;29;20234;-68
2023/05/07 09:07:25;;;;;;;7.47;3.87;;;;;;;19.15;67.21;98651.56;4918097;29;20251;-68
2023/05/07 09:09:52;;;;;;;7.27;4.30;;;;;;;19.21;67.15;98642.78;4907731;29;20305;-68
2023/05/07 09:12:20;;;;;;;4.13;3.73;;;;;;;19.11;68.31;98639.75;4915764;29;20238;-68
2023/05/07 09:14:50;;;;;;;4.83;3.97;;;;;;;19.08;67.10;98642.84;4900114;29;20232;-68
2023/05/07 09:17:17;;;;;;;7.43;3.80;;;;;;;18.87;68.78;98644.66;4919798;29;20257;-68
2023/05/07 09:19:49;;;;;;;4.37;3.97;;;;;;;18.85;69.49;98641.41;4898198;29;20238;-68
2023/05/07 09:22:17;;;;;;;6.07;4.30;;;;;;;18.99;70.31;98644.88;4917620;29;20303;-67
2023/05/07 09:24:59;;;;;;;7.50;3.93;;;;;;;19.15;69.25;98639.16;4894343;29;20228;-66
2023/05/07 09:27:27;;;;;;;4.43;3.90;;;;;;;19.31;69.48;98645.03;4912689;29;20237;-66
2023/05/07 09:29:57;;;;;;;5.77;3.60;;;;;;;19.46;69.39;98647.41;4915811;29;20229;-66
2023/05/07 09:32:27;;;;;;;5.20;3.23;;;;;;;19.49;68.86;98640.91;4899357;29;20245;-67
2023/05/07 09:34:54;;;;;;;5.80;4.33;;;;;;;19.18;65.60;98637.91;4918332;29;20242;-67
2023/05/07 09:37:23;;;;;;;6.10;3.57;;;;;;;19.33;64.25;98630.56;4911594;29;20644;-68
2023/05/07 09:39:51;;;;;;;3.67;3.17;;;;;;;19.53;65.22;98634.19;4914600;29;20257;-68
2023/05/07 09:42:24;;;;;;;6.60;3.60;;;;;;;19.68;65.03;98633.91;4893643;29;20243;-68
2023/05/07 09:44:52;;;;;;;7.20;3.80;;;;;;;19.61;63.00;98634.75;4902888;29;20291;-68
2023/05/07 09:47:25;;;;;;;6.63;3.93;;;;;;;19.66;67.24;98635.97;4918217;29;20250;-68
2023/05/07 09:49:58;;;;;;;5.10;4.43;;;;;;;19.52;64.84;98633.34;4896940;29;20236;-67
2023/05/07 09:52:28;;;;;;;6.13;4.57;;;;;;;19.75;68.02;98640.00;4900966;29;20715;-67
2023/05/07 09:54:59;;;;;;;7.07;5.27;;;;;;;20.04;67.24;98638.66;4916600;28;20297;-67
2023/05/07 09:57:29;;;;;;;6.10;3.60;;;;;;;20.05;65.06;98634.97;4905800;29;20250;-67
2023/05/07 10:00:04;;;;;;;6.27;3.97;;;;;;;20.03;65.23;98636.22;4917582;29;20659;-67
2023/05/07 10:02:46;;;;;;;7.33;3.40;;;;;;;20.20;62.50;98644.47;4908486;29;20712;-67
2023/05/07 10:05:13;;;;;;;4.43;3.50;;;;;;;20.15;65.13;98649.59;4918031;29;20236;-67
2023/05/07 10:07:41;;;;;;;9.10;4.00;;;;;;;20.58;63.50;98640.13;4914908;29;20318;-67
2023/05/07 10:10:09;;;;;;;5.43;4.00;;;;;;;21.05;61.60;98643.25;4889371;29;20280;-67
2023/05/07 10:12:41;;;;;;;6.37;4.00;;;;;;;21.22;60.61;98643.47;4897645;29;20244;-67
2023/05/07 10:15:14;;;;;;;10.07;5.27;;;;;;;21.09;61.25;98641.78;4910802;29;20310;-67
2023/05/07 10:17:45;;;;;;;7.37;4.40;;;;;;;21.41;62.24;98637.34;4912358;29;20231;-67
2023/05/07 10:20:13;;;;;;;5.53;4.00;;;;;;;21.87;60.81;98646.66;4914918;29;20239;-67
2023/05/07 10:22:46;;;;;;;5.97;4.67;;;;;;;22.26;57.75;98638.34;4917217;29;21611;-68
2023/05/07 10:25:19;;;;;;;6.83;4.87;;;;;;;22.25;56.32;98639.38;4914699;29;20238;-68
2023/05/07 10:27:49;;;;;;;6.50;4.90;;;;;;;22.22;56.36;98635.34;4914849;29;20277;-68
2023/05/07 10:30:27;;;;;;;6.30;4.03;;;;;;;22.34;56.85;98634.53;4906471;29;20221;-68
2023/05/07 10:33:05;;;;;;;6.93;5.10;;;;;;;22.11;56.09;98628.16;4911742;29;20266;-68
2023/05/07 10:35:37;;;;;;;5.80;4.23;;;;;;;22.51;55.25;98632.88;4899023;29;20611;-68
2023/05/07 10:38:04;;;;;;;7.43;3.70;;;;;;;22.44;52.98;98629.50;4900544;29;20715;-68
2023/05/07 10:40:34;;;;;;;6.77;4.10;;;;;;;22.54;56.51;98616.47;4902542;29;20395;-68
2023/05/07 10:43:04;;;;;;;7.07;4.90;;;;;;;22.68;56.19;98625.06;4915344;29;20307;-68
2023/05/07 10:45:36;;;;;;;7.67;4.23;;;;;;;23.31;57.52;98629.09;4912493;28;20238;-68
2023/05/07 10:48:10;;;;;;;5.30;4.27;;;;;;;23.77;53.55;98626.53;4912609;29;20291;-68
2023/05/07 10:50:39;;;;;;;4.63;4.00;;;;;;;24.16;53.60;98632.88;4902376;29;20595;-68
2023/05/07 10:53:29;;;;;;;6.90;4.97;;;;;;;23.92;52.77;98634.84;4917619;29;20234;-68
2023/05/07 10:56:28;;;;;;;4.50;4.00;;;;;;;23.82;51.35;98632.78;4910949;28;20313;-68
2023/05/07 10:59:34;;;;;;;5.87;3.27;;;;;;;23.84;53.74;98632.53;4913188;29;20237;-68
2023/05/07 11:02:15;;;;;;;5.93;3.97;;;;;;;24.00;50.32;98639.81;4897296;29;20287;-68
2023/05/07 11:05:22;;;;;;;4.47;3.53;;;;;;;23.96;51.91;98632.47;4878435;29;20596;-68
2023/05/07 11:08:07;;;;;;;4.80;3.83;;;;;;;24.25;51.77;98632.50;4911218;29;20240;-68
2023/05/07 11:10:53;;;;;;;6.57;5.57;;;;;;;24.33;50.52;98629.44;4897054;29;20231;-68
2023/05/07 11:13:43;;;;;;;6.47;4.93;;;;;;;24.52;51.02;98629.22;4915550;29;20313;-68
2023/05/07 11:16:18;;;;;;;8.93;5.63;;;;;;;24.36;50.80;98626.28;4923296;29;20241;-68
2023/05/07 11:18:48;;;;;;;7.70;5.50;;;;;;;24.18;52.92;98632.66;4914089;29;20261;-68
2023/05/07 11:21:33;;;;;;;7.67;4.53;;;;;;;24.39;50.76;98632.97;4895495;29;20237;-68
2023/05/07 11:24:16;;;;;;;5.23;3.90;;;;;;;24.35;49.62;98645.22;4909272;29;20242;-68
2023/05/07 11:26:54;;;;;;;4.37;3.50;;;;;;;24.67;48.54;98639.31;4915698;29;20243;-68
2023/05/07 11:29:23;;;;;;;6.32;3.72;;;;;;;24.66;50.43;98643.84;4910145;29;20538;-68
2023/05/07 11:31:57;;;;;;;5.53;4.60;;;;;;;24.79;50.57;98640.06;4918114;29;20249;-68
2023/05/07 11:34:28;;;;;;;7.77;6.37;;;;;;;24.31;53.69;98640.38;4910660;29;20229;-68
2023/05/07 11:36:59;;;;;;;10.20;6.87;;;;;;;24.32;53.30;98636.66;4918063;29;20313;-68
2023/05/07 11:39:39;;;;;;;6.50;5.90;;;;;;;24.52;53.27;98639.88;4918945;29;20228;-68
2023/05/07 11:42:05;;;;;;;8.53;6.10;;;;;;;24.90;51.05;98646.38;4916783;29;20339;-68
2023/05/07 11:44:43;;;;;;;6.73;5.83;;;;;;;24.58;51.95;98647.72;4910097;29;20606;-68